Time;durP1;ratioP1;P1;durP2;ratioP2;P2;SDS_P1;SDS_P2;PMS_P1;PMS_P2;Temp;Humidity;BMP_temperature;BMP_pressure;BME280_temperature;BME280_humidity;BME280_pressure;Samples;Min_cycle;Max_cycle;Signal;HPM_P1;HPM_P2
2022/08/28 00:05:14;;;;;;;;;;;;;;;;;;5038272;28;20255;-24
2022/08/28 00:16:11;;;;;;;;;;;;;;;;;;5034693;28;19963;-24
2022/08/28 00:21:33;;;;;;;;;;;;;;;;;;5034759;28;20267;-24
2022/08/28 00:24:01;;;;;;;;;;;;;;;;;;5034373;28;19932;-24
2022/08/28 00:29:39;;;;;;;;;;;;;;;;;;5034404;28;20059;-24
2022/08/28 00:32:08;;;;;;;;;;;;;;;;;;5035102;28;19909;-23
2022/08/28 00:34:37;;;;;;;;;;;;;;;;;;5034895;28;20299;-24
2022/08/28 00:37:05;;;;;;;;;;;;;;;;;;5034249;28;20003;-24
2022/08/28 00:39:32;;;;;;;;;;;;;;;;;;5034104;28;19936;-24
2022/08/28 00:47:49;;;;;;;;;;;;;;;;;;5034321;28;20363;-24
2022/08/28 00:58:55;;;;;;;;;;;;;;;;;;5038378;28;19932;-24
2022/08/28 01:01:24;;;;;;;;;;;;;;;;;;5040064;28;19912;-24
2022/08/28 01:03:54;;;;;;;;;;;;;;;;;;5037015;28;19925;-25
2022/08/28 01:06:24;;;;;;;;;;;;;;;;;;5036527;28;20367;-24
2022/08/28 01:11:39;;;;;;;;;;;;;;;;;;5039426;28;19924;-24
2022/08/28 01:14:12;;;;;;;;;;;;;;;;;;5038057;28;19921;-24
2022/08/28 01:22:23;;;;;;;;;;;;;;;;;;5040235;28;19981;-24
2022/08/28 01:24:50;;;;;;;;;;;;;;;;;;5037189;28;20314;-24
2022/08/28 01:27:25;;;;;;;;;;;;;;;;;;5037028;28;19923;-24
2022/08/28 01:46:58;;;;;;;;;;;;;;;;;;5039560;28;19951;-24
2022/08/28 01:57:57;;;;;;;;;;;;;;;;;;5056276;28;19938;-24
2022/08/28 02:06:12;;;;;;;;;;;;;;;;;;5079918;28;19975;-24
2022/08/28 02:11:28;;;;;;;;;;;;;;;;;;5078294;28;19928;-24
2022/08/28 02:16:46;;;;;;;;;;;;;;;;;;5078260;28;19923;-24
2022/08/28 02:22:07;;;;;;;;;;;;;;;;;;5076966;28;19962;-24
2022/08/28 02:24:34;;;;;;;;;;;;;;;;;;5080525;28;19916;-24
2022/08/28 02:27:01;;;;;;;;;;;;;;;;;;5078514;28;19918;-24
2022/08/28 02:32:13;;;;;;;;;;;;;;;;;;5077823;28;19960;-24
2022/08/28 02:34:43;;;;;;;;;;;;;;;;;;5078003;28;20003;-24
2022/08/28 02:37:12;;;;;;;;;;;;;;;;;;5078403;28;19940;-24
2022/08/28 02:45:14;;;;;;;;;;;;;;;;;;5078558;28;20413;-24
2022/08/28 02:50:32;;;;;;;;;;;;;;;;;;5077763;28;19966;-24
2022/08/28 03:04:16;;;;;;;;;;;;;;;;;;5117592;22;19949;-24
2022/08/28 03:06:42;;;;;;;;;;;;;;;;;;5118595;28;19923;-24
2022/08/28 03:09:10;;;;;;;;;;;;;;;;;;5118699;28;20085;-24
2022/08/28 03:11:36;;;;;;;;;;;;;;;;;;5119233;28;19912;-24
2022/08/28 03:14:03;;;;;;;;;;;;;;;;;;5118160;28;19958;-24
2022/08/28 03:16:31;;;;;;;;;;;;;;;;;;5118188;28;20284;-23
2022/08/28 03:18:57;;;;;;;;;;;;;;;;;;5116673;28;19953;-23
2022/08/28 03:21:24;;;;;;;;;;;;;;;;;;5118482;28;19919;-23
2022/08/28 03:23:51;;;;;;;;;;;;;;;;;;5115400;28;19918;-23
2022/08/28 03:26:20;;;;;;;;;;;;;;;;;;5117892;28;19922;-24
2022/08/28 03:28:47;;;;;;;;;;;;;;;;;;5114767;28;19915;-24
2022/08/28 03:31:14;;;;;;;;;;;;;;;;;;5118173;28;19911;-24
2022/08/28 03:33:40;;;;;;;;;;;;;;;;;;5118152;28;20376;-24
2022/08/28 03:36:07;;;;;;;;;;;;;;;;;;5108889;28;19998;-23
2022/08/28 03:38:34;;;;;;;;;;;;;;;;;;5118674;28;19912;-23
2022/08/28 03:41:02;;;;;;;;;;;;;;;;;;5116518;28;19998;-23
2022/08/28 03:43:30;;;;;;;;;;;;;;;;;;5117625;28;19912;-23
2022/08/28 03:45:57;;;;;;;;;;;;;;;;;;5117437;28;19922;-23
2022/08/28 03:48:25;;;;;;;;;;;;;;;;;;5111384;28;20326;-25
2022/08/28 03:50:55;;;;;;;;;;;;;;;;;;5116585;28;19919;-23
2022/08/28 03:53:22;;;;;;;;;;;;;;;;;;5117563;28;19920;-23
2022/08/28 03:55:49;;;;;;;;;;;;;;;;;;5114481;28;19961;-23
2022/08/28 03:58:16;;;;;;;;;;;;;;;;;;5118045;28;19914;-23
2022/08/28 04:00:43;;;;;;;;;;;;;;;;;;5117628;28;19965;-23
2022/08/28 04:03:12;;;;;;;;;;;;;;;;;;5111130;28;19935;-23
2022/08/28 04:05:39;;;;;;;;;;;;;;;;;;5097364;28;19947;-23
2022/08/28 04:08:06;;;;;;;;;;;;;;;;;;5097605;28;19912;-23
2022/08/28 04:10:34;;;;;;;;;;;;;;;;;;5097126;28;19920;-23
2022/08/28 04:13:01;;;;;;;;;;;;;;;;;;5097234;28;19951;-23
2022/08/28 04:15:30;;;;;;;;;;;;;;;;;;5079447;28;19991;-23
2022/08/28 04:17:57;;;;;;;;;;;;;;;;;;5097036;28;19912;-24
2022/08/28 04:20:25;;;;;;;;;;;;;;;;;;5097224;28;20366;-23
2022/08/28 04:22:51;;;;;;;;;;;;;;;;;;5097094;28;19912;-23
2022/08/28 04:25:18;;;;;;;;;;;;;;;;;;5099619;28;19993;-23
2022/08/28 04:27:45;;;;;;;;;;;;;;;;;;5100893;28;19930;-23
2022/08/28 04:30:11;;;;;;;;;;;;;;;;;;5101430;28;19913;-23
2022/08/28 04:32:38;;;;;;;;;;;;;;;;;;5101178;28;19991;-23
2022/08/28 04:43:34;;;;;;;;;;;;;;;;;;5100402;28;19942;-23
2022/08/28 04:46:01;;;;;;;;;;;;;;;;;;5082813;28;19998;-23
2022/08/28 04:48:28;;;;;;;;;;;;;;;;;;5101082;28;19927;-23
2022/08/28 04:50:54;;;;;;;;;;;;;;;;;;5100645;28;19912;-23
2022/08/28 04:53:21;;;;;;;;;;;;;;;;;;5083098;28;19908;-23
2022/08/28 04:55:49;;;;;;;;;;;;;;;;;;5082716;28;20000;-24
2022/08/28 04:58:15;;;;;;;;;;;;;;;;;;5100819;28;19918;-23
2022/08/28 05:00:44;;;;;;;;;;;;;;;;;;5100612;28;19912;-24
2022/08/28 05:03:10;;;;;;;;;;;;;;;;;;5110611;27;19923;-23
2022/08/28 05:05:37;;;;;;;;;;;;;;;;;;5141880;27;19911;-23
2022/08/28 05:08:04;;;;;;;;;;;;;;;;;;5141048;27;20034;-24
2022/08/28 05:10:34;;;;;;;;;;;;;;;;;;5141053;27;20302;-23
2022/08/28 05:13:00;;;;;;;;;;;;;;;;;;5122866;27;20294;-24
2022/08/28 05:15:27;;;;;;;;;;;;;;;;;;5141234;27;19923;-23
2022/08/28 05:17:54;;;;;;;;;;;;;;;;;;5140835;27;19907;-23
2022/08/28 05:20:21;;;;;;;;;;;;;;;;;;5140846;27;19911;-23
2022/08/28 05:22:48;;;;;;;;;;;;;;;;;;5141218;27;19907;-23
2022/08/28 05:25:15;;;;;;;;;;;;;;;;;;5141720;27;19957;-23
2022/08/28 05:27:41;;;;;;;;;;;;;;;;;;5141271;27;19912;-24
2022/08/28 05:30:09;;;;;;;;;;;;;;;;;;5140658;27;20342;-23
2022/08/28 05:32:36;;;;;;;;;;;;;;;;;;5122708;27;19908;-23
2022/08/28 05:35:02;;;;;;;;;;;;;;;;;;5122785;27;19922;-23
2022/08/28 05:40:15;;;;;;;;;;;;;;;;;;5140611;27;19968;-23
2022/08/28 05:42:44;;;;;;;;;;;;;;;;;;5140491;27;19912;-24
2022/08/28 05:45:12;;;;;;;;;;;;;;;;;;5140671;27;19911;-24
2022/08/28 05:47:38;;;;;;;;;;;;;;;;;;5140175;27;19912;-24
2022/08/28 05:50:05;;;;;;;;;;;;;;;;;;5140458;27;19912;-23
2022/08/28 05:52:33;;;;;;;;;;;;;;;;;;5140561;27;19907;-23
2022/08/28 05:55:00;;;;;;;;;;;;;;;;;;5140118;27;19965;-24
2022/08/28 05:57:27;;;;;;;;;;;;;;;;;;5123341;27;19911;-24
2022/08/28 05:59:54;;;;;;;;;;;;;;;;;;5139314;27;19916;-24
2022/08/28 06:05:17;;;;;;;;;;;;;;;;;;5027529;27;22882;-24
2022/08/28 06:07:44;;;;;;;;;;;;;;;;;;5122451;27;20257;-24
2022/08/28 06:15:47;;;;;;;;;;;;;;;;;;5141487;27;19922;-24
2022/08/28 06:26:40;;;;;;;;;;;;;;;;;;5140509;27;19922;-23
2022/08/28 06:29:07;;;;;;;;;;;;;;;;;;5121535;27;19962;-23
2022/08/28 06:34:16;;;;;;;;;;;;;;;;;;4191562;26;19924;-20
2022/08/28 06:36:44;;;;;;;;;;;;;;;;;;5099304;28;19912;-21
2022/08/28 06:39:13;;;;;;;;;;;;;;;;;;5098253;28;19922;-20
2022/08/28 06:44:31;;;;;;;;;;;;;;;;;;5078109;28;19970;-22
2022/08/28 06:47:11;;;;;;;;;;;;;;;;;;5078012;28;19917;-20
2022/08/28 06:58:19;;;;;;;;;;;;;;;;;;5078788;28;19938;-20
2022/08/28 07:03:23;;;;;;;;;;;;;;;;;;5403706;22;19939;-20
2022/08/28 07:05:50;;;;;;;;;;;;;;;;;;5057859;28;19923;-20
2022/08/28 07:08:17;;;;;;;;;;;;;;;;;;5038856;28;20232;-20
2022/08/28 07:13:29;;;;;;;;;;;;;;;;;;5056241;28;19975;-19
2022/08/28 07:15:56;;;;;;;;;;;;;;;;;;5057949;28;20331;-19
2022/08/28 07:18:24;;;;;;;;;;;;;;;;;;5057606;28;19924;-20
2022/08/28 07:20:51;;;;;;;;;;;;;;;;;;5039709;28;19909;-19
2022/08/28 07:23:18;;;;;;;;;;;;;;;;;;5039407;28;19924;-19
2022/08/28 07:25:45;;;;;;;;;;;;;;;;;;5057000;28;19913;-19
2022/08/28 07:28:12;;;;;;;;;;;;;;;;;;5057119;28;20030;-19
2022/08/28 07:30:39;;;;;;;;;;;;;;;;;;5057319;28;20008;-19
2022/08/28 07:33:06;;;;;;;;;;;;;;;;;;5039919;28;19923;-19
2022/08/28 07:35:32;;;;;;;;;;;;;;;;;;5039806;28;19912;-19
2022/08/28 07:54:46;;;;;;;;;;;;;;;;;;5076024;28;19985;-23
2022/08/28 07:57:14;;;;;;;;;;;;;;;;;;5077355;28;19970;-23
2022/08/28 07:59:41;;;;;;;;;;;;;;;;;;5078811;28;19908;-23
2022/08/28 08:02:09;;;;;;;;;;;;;;;;;;5063644;28;20011;-24
2022/08/28 08:04:36;;;;;;;;;;;;;;;;;;5080650;28;19962;-23
2022/08/28 08:07:03;;;;;;;;;;;;;;;;;;5063089;28;19912;-23
2022/08/28 08:09:29;;;;;;;;;;;;;;;;;;5081093;28;19912;-24
2022/08/28 08:11:57;;;;;;;;;;;;;;;;;;5063066;28;20004;-23
2022/08/28 08:17:09;;;;;;;;;;;;;;;;;;5080121;28;19923;-23
2022/08/28 08:19:35;;;;;;;;;;;;;;;;;;5081001;28;19916;-23
2022/08/28 08:22:02;;;;;;;;;;;;;;;;;;5072456;28;19923;-23
2022/08/28 08:24:32;;;;;;;;;;;;;;;;;;5062615;28;19920;-23
2022/08/28 08:27:00;;;;;;;;;;;;;;;;;;5078499;28;20313;-23
2022/08/28 08:29:30;;;;;;;;;;;;;;;;;;5078138;28;19920;-23
2022/08/28 08:32:01;;;;;;;;;;;;;;;;;;5083412;28;19920;-24
2022/08/28 08:34:29;;;;;;;;;;;;;;;;;;5082583;28;19913;-23
2022/08/28 08:36:56;;;;;;;;;;;;;;;;;;5080390;28;19912;-24
2022/08/28 08:39:23;;;;;;;;;;;;;;;;;;5080467;28;20254;-23
2022/08/28 08:41:50;;;;;;;;;;;;;;;;;;5080311;28;19920;-23
2022/08/28 08:44:21;;;;;;;;;;;;;;;;;;5080296;28;19912;-24
2022/08/28 08:46:47;;;;;;;;;;;;;;;;;;5080483;28;19931;-24
2022/08/28 08:49:14;;;;;;;;;;;;;;;;;;5080675;28;19927;-23
2022/08/28 08:51:42;;;;;;;;;;;;;;;;;;5080220;28;19912;-23
2022/08/28 08:54:09;;;;;;;;;;;;;;;;;;5094663;28;19920;-24
2022/08/28 08:56:37;;;;;;;;;;;;;;;;;;5099936;28;20403;-24
2022/08/28 08:59:04;;;;;;;;;;;;;;;;;;5081889;28;20250;-23
2022/08/28 09:01:31;;;;;;;;;;;;;;;;;;5099925;28;19912;-24
2022/08/28 09:03:59;;;;;;;;;;;;;;;;;;5099712;28;19927;-23
2022/08/28 09:06:30;;;;;;;;;;;;;;;;;;5099628;28;20404;-24
2022/08/28 09:08:57;;;;;;;;;;;;;;;;;;5100266;28;19922;-23
2022/08/28 09:14:15;;;;;;;;;;;;;;;;;;5100346;28;20266;-24
2022/08/28 09:16:42;;;;;;;;;;;;;;;;;;5082200;28;19939;-24
2022/08/28 09:19:09;;;;;;;;;;;;;;;;;;5099622;28;19912;-23
2022/08/28 09:21:37;;;;;;;;;;;;;;;;;;5099887;28;19923;-26
2022/08/28 09:24:04;;;;;;;;;;;;;;;;;;5099571;28;19923;-24
2022/08/28 09:26:32;;;;;;;;;;;;;;;;;;5082287;28;20391;-24
2022/08/28 09:28:59;;;;;;;;;;;;;;;;;;5099526;28;19926;-23
2022/08/28 09:31:26;;;;;;;;;;;;;;;;;;5099604;28;19909;-24
2022/08/28 09:33:53;;;;;;;;;;;;;;;;;;5099370;28;19923;-24
2022/08/28 09:36:20;;;;;;;;;;;;;;;;;;5099491;28;19967;-23
2022/08/28 09:38:47;;;;;;;;;;;;;;;;;;5099631;28;19912;-23
2022/08/28 09:43:58;;;;;;;;;;;;;;;;;;5099332;28;19938;-24
2022/08/28 09:46:26;;;;;;;;;;;;;;;;;;5081512;28;19970;-23
2022/08/28 09:48:54;;;;;;;;;;;;;;;;;;5098237;28;19924;-24
2022/08/28 09:51:21;;;;;;;;;;;;;;;;;;5099516;28;20348;-24
2022/08/28 09:53:48;;;;;;;;;;;;;;;;;;5098886;28;19924;-24
2022/08/28 09:56:15;;;;;;;;;;;;;;;;;;5099571;28;19926;-24
2022/08/28 09:58:42;;;;;;;;;;;;;;;;;;5080979;28;19969;-24
2022/08/28 10:01:09;;;;;;;;;;;;;;;;;;5098928;28;20385;-24
2022/08/28 10:12:04;;;;;;;;;;;;;;;;;;5099932;28;20320;-24
2022/08/28 10:14:31;;;;;;;;;;;;;;;;;;5098541;28;19994;-24
2022/08/28 10:16:58;;;;;;;;;;;;;;;;;;5081272;28;19912;-24
2022/08/28 10:33:25;;;;;;;;;;;;;;;;;;5397094;22;19925;-24
2022/08/28 10:35:53;;;;;;;;;;;;;;;;;;5058442;28;19952;-24
2022/08/28 10:38:22;;;;;;;;;;;;;;;;;;5057764;28;20015;-23
2022/08/28 10:40:50;;;;;;;;;;;;;;;;;;5057903;28;19988;-23
2022/08/28 10:43:18;;;;;;;;;;;;;;;;;;5057778;28;19913;-23
2022/08/28 10:45:45;;;;;;;;;;;;;;;;;;5040532;28;20012;-23
2022/08/28 10:48:12;;;;;;;;;;;;;;;;;;5058020;28;19937;-23
2022/08/28 10:50:39;;;;;;;;;;;;;;;;;;5056021;28;19909;-23
2022/08/28 10:53:06;;;;;;;;;;;;;;;;;;5057647;28;19917;-24
2022/08/28 10:58:25;;;;;;;;;;;;;;;;;;5058987;28;19919;-23
2022/08/28 11:00:52;;;;;;;;;;;;;;;;;;5057797;28;19913;-23
2022/08/28 11:03:21;;;;;;;;;;;;;;;;;;5040036;28;19928;-23
2022/08/28 11:05:48;;;;;;;;;;;;;;;;;;5058283;28;19951;-23
2022/08/28 11:08:15;;;;;;;;;;;;;;;;;;5040328;28;19948;-23
2022/08/28 11:10:47;;;;;;;;;;;;;;;;;;5057330;28;20202;-23
2022/08/28 11:13:14;;;;;;;;;;;;;;;;;;5057599;28;20332;-23
2022/08/28 11:15:41;;;;;;;;;;;;;;;;;;5058145;28;19977;-23
2022/08/28 11:18:08;;;;;;;;;;;;;;;;;;5057097;28;19978;-23
2022/08/28 11:20:35;;;;;;;;;;;;;;;;;;5056983;28;20366;-23
2022/08/28 11:23:02;;;;;;;;;;;;;;;;;;5057506;28;19924;-24
2022/08/28 11:25:29;;;;;;;;;;;;;;;;;;5057612;28;19936;-24
2022/08/28 11:27:57;;;;;;;;;;;;;;;;;;5056717;28;19948;-24
2022/08/28 11:30:24;;;;;;;;;;;;;;;;;;5039725;28;19924;-24
2022/08/28 11:32:51;;;;;;;;;;;;;;;;;;5061124;28;19917;-24
2022/08/28 11:35:17;;;;;;;;;;;;;;;;;;5077400;28;20350;-24
2022/08/28 11:37:47;;;;;;;;;;;;;;;;;;5076846;28;19967;-24
2022/08/28 11:51:26;;;;;;;;;;;;;;;;;;5078907;28;20263;-24
2022/08/28 11:53:54;;;;;;;;;;;;;;;;;;5076954;28;19913;-24
2022/08/28 11:56:21;;;;;;;;;;;;;;;;;;5077246;28;19971;-24
2022/08/28 12:10:18;;;;;;;;;;;;;;;;;;5077888;28;20353;-24
2022/08/28 12:12:46;;;;;;;;;;;;;;;;;;5076441;28;19912;-24
2022/08/28 12:15:12;;;;;;;;;;;;;;;;;;5077025;28;19967;-24
2022/08/28 12:17:40;;;;;;;;;;;;;;;;;;5076518;28;19952;-24
2022/08/28 12:34:23;;;;;;;;;;;;;;;;;;4175721;26;19932;-24
2022/08/28 12:36:56;;;;;;;;;;;;;;;;;;5097911;28;19920;-24
2022/08/28 12:47:58;;;;;;;;;;;;;;;;;;5480702;22;19994;-24
2022/08/28 12:50:35;;;;;;;;;;;;;;;;;;5042021;28;19916;-24
2022/08/28 12:53:02;;;;;;;;;;;;;;;;;;5044421;28;19920;-24
2022/08/28 12:58:14;;;;;;;;;;;;;;;;;;5072036;28;19920;-24
2022/08/28 13:00:40;;;;;;;;;;;;;;;;;;5080075;28;19920;-24
2022/08/28 13:03:07;;;;;;;;;;;;;;;;;;5080234;28;19915;-24
2022/08/28 13:11:10;;;;;;;;;;;;;;;;;;5080853;28;19966;-24
2022/08/28 13:13:37;;;;;;;;;;;;;;;;;;5075287;28;19923;-24
2022/08/28 13:16:04;;;;;;;;;;;;;;;;;;5071101;28;19920;-24
2022/08/28 13:21:27;;;;;;;;;;;;;;;;;;5079939;28;19935;-24
2022/08/28 13:23:53;;;;;;;;;;;;;;;;;;5080530;28;19917;-24
2022/08/28 13:34:47;;;;;;;;;;;;;;;;;;5079949;28;19923;-24
2022/08/28 13:37:16;;;;;;;;;;;;;;;;;;5076526;28;19916;-24
2022/08/28 13:39:49;;;;;;;;;;;;;;;;;;5077068;28;19916;-24
2022/08/28 13:45:00;;;;;;;;;;;;;;;;;;5080295;28;19920;-24
2022/08/28 13:47:30;;;;;;;;;;;;;;;;;;5077275;28;19912;-24
2022/08/28 13:49:57;;;;;;;;;;;;;;;;;;5059396;28;19916;-23
2022/08/28 13:52:24;;;;;;;;;;;;;;;;;;5041408;28;19995;-24
2022/08/28 13:55:03;;;;;;;;;;;;;;;;;;5057899;28;19913;-24
2022/08/28 13:57:31;;;;;;;;;;;;;;;;;;5059370;28;19964;-24
2022/08/28 13:59:58;;;;;;;;;;;;;;;;;;5058658;28;19991;-24
2022/08/28 14:05:11;;;;;;;;;;;;;;;;;;5058927;28;19966;-24
2022/08/28 14:07:39;;;;;;;;;;;;;;;;;;5058106;28;20324;-24
2022/08/28 14:10:06;;;;;;;;;;;;;;;;;;5058237;28;20051;-24
2022/08/28 14:12:33;;;;;;;;;;;;;;;;;;5040971;28;19920;-24
2022/08/28 14:17:52;;;;;;;;;;;;;;;;;;5060187;28;19924;-23
2022/08/28 14:20:19;;;;;;;;;;;;;;;;;;5058205;28;19913;-23
2022/08/28 14:22:47;;;;;;;;;;;;;;;;;;5040714;28;19909;-23
2022/08/28 14:25:15;;;;;;;;;;;;;;;;;;5057032;28;19912;-24
2022/08/28 14:27:43;;;;;;;;;;;;;;;;;;5057262;28;19919;-23
2022/08/28 14:30:10;;;;;;;;;;;;;;;;;;5058000;28;19920;-23
2022/08/28 14:32:39;;;;;;;;;;;;;;;;;;5040164;28;19963;-23
2022/08/28 14:35:10;;;;;;;;;;;;;;;;;;5057549;28;19976;-23
2022/08/28 14:37:38;;;;;;;;;;;;;;;;;;5058834;28;19913;-23
2022/08/28 14:40:05;;;;;;;;;;;;;;;;;;5058600;28;19916;-23
2022/08/28 14:42:32;;;;;;;;;;;;;;;;;;5039861;28;20239;-24
2022/08/28 14:45:00;;;;;;;;;;;;;;;;;;5058270;28;20000;-25
2022/08/28 14:47:27;;;;;;;;;;;;;;;;;;5058035;28;19928;-24
2022/08/28 14:49:54;;;;;;;;;;;;;;;;;;5077063;28;19999;-23
2022/08/28 14:52:21;;;;;;;;;;;;;;;;;;5077952;28;19909;-23
2022/08/28 14:54:48;;;;;;;;;;;;;;;;;;5077589;28;20254;-23
2022/08/28 14:57:16;;;;;;;;;;;;;;;;;;5059907;28;19913;-23
2022/08/28 14:59:44;;;;;;;;;;;;;;;;;;5059804;28;19912;-23
2022/08/28 15:10:44;;;;;;;;;;;;;;;;;;5076657;28;20358;-23
2022/08/28 15:13:11;;;;;;;;;;;;;;;;;;5077260;28;19912;-23
2022/08/28 15:15:39;;;;;;;;;;;;;;;;;;5058934;28;19918;-24
2022/08/28 15:18:11;;;;;;;;;;;;;;;;;;5080418;28;20268;-24
2022/08/28 15:20:37;;;;;;;;;;;;;;;;;;5077408;28;20372;-24
2022/08/28 15:23:04;;;;;;;;;;;;;;;;;;5075840;28;19909;-23
2022/08/28 15:28:20;;;;;;;;;;;;;;;;;;5075217;28;19977;-24
2022/08/28 15:31:24;;;;;;;;;;;;;;;;;;5057691;28;19991;-24
2022/08/28 15:45:25;;;;;;;;;;;;;;;;;;;;;
2022/08/28 16:07:50;;;;;;;;;;;;;;;;;;5075032;28;19966;-23
2022/08/28 16:30:01;;;;;;;;;;;;;;;;;;5035566;28;19932;-23
2022/08/28 16:32:31;;;;;;;;;;;;;;;;;;5041658;28;19924;-23
2022/08/28 16:35:01;;;;;;;;;;;;;;;;;;5022983;28;19913;-23
2022/08/28 16:37:34;;;;;;;;;;;;;;;;;;5038293;28;19944;-23
2022/08/28 16:40:03;;;;;;;;;;;;;;;;;;5040165;28;19945;-23
2022/08/28 16:42:31;;;;;;;;;;;;;;;;;;5045733;28;19984;-23
2022/08/28 16:47:49;;;;;;;;;;;;;;;;;;5040908;28;19948;-23
2022/08/28 16:50:19;;;;;;;;;;;;;;;;;;5038768;28;19924;-23
2022/08/28 16:52:47;;;;;;;;;;;;;;;;;;5038679;28;19909;-22
2022/08/28 17:12:10;;;;;;;;;;;;;;;;;;5059060;28;19916;-24
2022/08/28 17:23:09;;;;;;;;;;;;;;;;;;5059525;28;19916;-24
2022/08/28 17:28:31;;;;;;;;;;;;;;;;;;5057765;28;19931;-24
2022/08/28 17:31:03;;;;;;;;;;;;;;;;;;5039316;28;20009;-23
2022/08/28 17:33:34;;;;;;;;;;;;;;;;;;5057976;28;20307;-24
2022/08/28 17:36:18;;;;;;;;;;;;;;;;;;5057176;28;19920;-24
2022/08/28 17:38:52;;;;;;;;;;;;;;;;;;5039281;28;19944;-23
2022/08/28 17:44:10;;;;;;;;;;;;;;;;;;5057584;28;19920;-23
2022/08/28 17:46:38;;;;;;;;;;;;;;;;;;5057145;28;19917;-24
2022/08/28 17:49:08;;;;;;;;;;;;;;;;;;5056764;28;19917;-23
2022/08/28 17:51:42;;;;;;;;;;;;;;;;;;5058580;28;19967;-24
2022/08/28 17:54:10;;;;;;;;;;;;;;;;;;5057605;28;19909;-24
2022/08/28 17:56:38;;;;;;;;;;;;;;;;;;5038936;28;20012;-24
2022/08/28 17:59:10;;;;;;;;;;;;;;;;;;5056897;28;19915;-24
2022/08/28 18:01:41;;;;;;;;;;;;;;;;;;5058598;28;19979;-24
2022/08/28 18:09:52;;;;;;;;;;;;;;;;;;4939031;28;19935;-24
2022/08/28 18:12:20;;;;;;;;;;;;;;;;;;5080787;28;20231;-23
2022/08/28 18:14:54;;;;;;;;;;;;;;;;;;5060422;28;19909;-24
2022/08/28 18:17:21;;;;;;;;;;;;;;;;;;5079199;28;20342;-24
2022/08/28 18:28:06;;;;;;;;;;;;;;;;;;5078141;28;19927;-24
2022/08/28 18:33:24;;;;;;;;;;;;;;;;;;5079206;28;19922;-23
2022/08/28 18:35:51;;;;;;;;;;;;;;;;;;5060056;28;19970;-23
2022/08/28 18:41:19;;;;;;;;;;;;;;;;;;5077339;28;19924;-23
2022/08/28 18:43:59;;;;;;;;;;;;;;;;;;5014183;28;19949;-23
2022/08/28 18:46:33;;;;;;;;;;;;;;;;;;5073548;28;20043;-24
2022/08/28 18:49:09;;;;;;;;;;;;;;;;;;5075370;28;20031;-23
2022/08/28 18:51:38;;;;;;;;;;;;;;;;;;5075583;28;20015;-23
2022/08/28 18:54:10;;;;;;;;;;;;;;;;;;5075824;28;20080;-23
2022/08/28 19:07:57;;;;;;;;;;;;;;;;;;5077089;28;20013;-23
2022/08/28 19:10:23;;;;;;;;;;;;;;;;;;5077705;28;20347;-23
2022/08/28 19:12:50;;;;;;;;;;;;;;;;;;5059601;28;19917;-24
2022/08/28 19:15:17;;;;;;;;;;;;;;;;;;5077151;28;19912;-24
2022/08/28 19:17:44;;;;;;;;;;;;;;;;;;5059816;28;19916;-24
2022/08/28 19:20:11;;;;;;;;;;;;;;;;;;5059817;28;20251;-23
2022/08/28 19:22:39;;;;;;;;;;;;;;;;;;5077860;28;19961;-23
2022/08/28 19:25:06;;;;;;;;;;;;;;;;;;5077332;28;20281;-23
2022/08/28 19:30:24;;;;;;;;;;;;;;;;;;5077462;28;19928;-23
2022/08/28 19:32:52;;;;;;;;;;;;;;;;;;5076813;28;19955;-23
2022/08/28 19:38:10;;;;;;;;;;;;;;;;;;5077686;28;20027;-23
2022/08/28 19:40:47;;;;;;;;;;;;;;;;;;5059388;28;19939;-24
2022/08/28 19:43:15;;;;;;;;;;;;;;;;;;5059123;28;19908;-23
2022/08/28 19:54:05;;;;;;;;;;;;;;;;;;5054732;28;20353;-24
2022/08/28 19:59:23;;;;;;;;;;;;;;;;;;5077153;28;20243;-23
2022/08/28 20:01:50;;;;;;;;;;;;;;;;;;5076749;28;19976;-24
2022/08/28 20:09:52;;;;;;;;;;;;;;;;;;5074483;28;19974;-23
2022/08/28 20:20:55;;;;;;;;;;;;;;;;;;5075467;28;20009;-24
2022/08/28 20:23:41;;;;;;;;;;;;;;;;;;5057415;28;19923;-23
2022/08/28 20:28:53;;;;;;;;;;;;;;;;;;5193360;22;20429;-23
2022/08/28 20:31:20;;;;;;;;;;;;;;;;;;5055721;28;19938;-24
2022/08/28 20:33:47;;;;;;;;;;;;;;;;;;5055420;28;19919;-23
2022/08/28 20:36:14;;;;;;;;;;;;;;;;;;5037390;28;20242;-24
2022/08/28 20:38:47;;;;;;;;;;;;;;;;;;5054791;28;19913;-24
2022/08/28 20:46:49;;;;;;;;;;;;;;;;;;5056924;28;20318;-23
2022/08/28 20:52:02;;;;;;;;;;;;;;;;;;5057592;28;19920;-23
2022/08/28 21:00:11;;;;;;;;;;;;;;;;;;5056495;28;19923;-23
2022/08/28 21:02:38;;;;;;;;;;;;;;;;;;5037974;28;19912;-23
2022/08/28 21:07:50;;;;;;;;;;;;;;;;;;5059532;28;19943;-23
2022/08/28 21:10:17;;;;;;;;;;;;;;;;;;5060576;28;19913;-23
2022/08/28 21:24:02;;;;;;;;;;;;;;;;;;5060125;28;19974;-23
2022/08/28 21:32:08;;;;;;;;;;;;;;;;;;5435264;22;20436;-20
2022/08/28 21:34:34;;;;;;;;;;;;;;;;;;5054430;28;19947;-19
2022/08/28 21:36:59;;;;;;;;;;;;;;;;;;5076760;28;19917;-19
2022/08/28 21:39:25;;;;;;;;;;;;;;;;;;5077075;28;19947;-19
2022/08/28 21:41:51;;;;;;;;;;;;;;;;;;5076948;28;20003;-19
2022/08/28 21:44:17;;;;;;;;;;;;;;;;;;5076953;28;19994;-19
2022/08/28 21:46:43;;;;;;;;;;;;;;;;;;5076957;28;20367;-19
2022/08/28 21:49:09;;;;;;;;;;;;;;;;;;5076800;28;19917;-19
2022/08/28 21:51:35;;;;;;;;;;;;;;;;;;5077364;28;19920;-20
2022/08/28 21:54:01;;;;;;;;;;;;;;;;;;5076779;28;19909;-19
2022/08/28 21:56:27;;;;;;;;;;;;;;;;;;5076752;28;20310;-19
2022/08/28 21:58:53;;;;;;;;;;;;;;;;;;5076960;28;20249;-19
2022/08/28 22:01:19;;;;;;;;;;;;;;;;;;5076952;28;19935;-19
2022/08/28 22:03:45;;;;;;;;;;;;;;;;;;5076858;28;19962;-19
2022/08/28 22:06:12;;;;;;;;;;;;;;;;;;5076598;28;19913;-19
2022/08/28 22:08:38;;;;;;;;;;;;;;;;;;5076489;28;20343;-19
2022/08/28 22:11:04;;;;;;;;;;;;;;;;;;5076756;28;20303;-19
2022/08/28 22:13:30;;;;;;;;;;;;;;;;;;5076359;28;19923;-19
2022/08/28 22:15:56;;;;;;;;;;;;;;;;;;5076395;28;19981;-19
2022/08/28 22:18:22;;;;;;;;;;;;;;;;;;5075424;28;19912;-19
2022/08/28 22:23:33;;;;;;;;;;;;;;;;;;5076229;28;20409;-19
2022/08/28 22:25:59;;;;;;;;;;;;;;;;;;5076471;28;19913;-19
2022/08/28 22:28:25;;;;;;;;;;;;;;;;;;5076581;28;19913;-21
2022/08/28 22:30:51;;;;;;;;;;;;;;;;;;5075994;28;20236;-19
2022/08/28 22:33:17;;;;;;;;;;;;;;;;;;5075754;28;19920;-19
2022/08/28 22:35:44;;;;;;;;;;;;;;;;;;5075005;28;19912;-19
2022/08/28 22:38:10;;;;;;;;;;;;;;;;;;5075870;28;19956;-19
2022/08/28 22:40:36;;;;;;;;;;;;;;;;;;5076078;28;19920;-19
2022/08/28 22:43:02;;;;;;;;;;;;;;;;;;5076027;28;19970;-19
2022/08/28 22:45:28;;;;;;;;;;;;;;;;;;5075755;28;19913;-19
2022/08/28 22:47:54;;;;;;;;;;;;;;;;;;5075640;28;19923;-19
2022/08/28 22:50:20;;;;;;;;;;;;;;;;;;5075667;28;19920;-19
2022/08/28 22:52:46;;;;;;;;;;;;;;;;;;5075922;28;20247;-19
2022/08/28 22:55:12;;;;;;;;;;;;;;;;;;5075569;28;19944;-19
2022/08/28 22:57:38;;;;;;;;;;;;;;;;;;5075862;28;19919;-19
2022/08/28 23:00:04;;;;;;;;;;;;;;;;;;5076082;28;19999;-19
2022/08/28 23:02:30;;;;;;;;;;;;;;;;;;5075332;28;19959;-19
2022/08/28 23:04:56;;;;;;;;;;;;;;;;;;5075603;28;19921;-19
2022/08/28 23:07:22;;;;;;;;;;;;;;;;;;5075301;28;19912;-20
2022/08/28 23:09:48;;;;;;;;;;;;;;;;;;5075198;28;19917;-19
2022/08/28 23:12:14;;;;;;;;;;;;;;;;;;5075737;28;20346;-19
2022/08/28 23:14:40;;;;;;;;;;;;;;;;;;5075458;28;19916;-19
2022/08/28 23:17:06;;;;;;;;;;;;;;;;;;5075194;28;19935;-18
2022/08/28 23:19:32;;;;;;;;;;;;;;;;;;5075601;28;19920;-18
2022/08/28 23:21:58;;;;;;;;;;;;;;;;;;5075050;28;19920;-18
2022/08/28 23:24:24;;;;;;;;;;;;;;;;;;5075227;28;19932;-18
2022/08/28 23:26:50;;;;;;;;;;;;;;;;;;5074110;28;20346;-18
2022/08/28 23:29:16;;;;;;;;;;;;;;;;;;5074772;28;20285;-19
2022/08/28 23:31:42;;;;;;;;;;;;;;;;;;5075570;28;19922;-19
2022/08/28 23:34:08;;;;;;;;;;;;;;;;;;5074918;28;20399;-18
2022/08/28 23:36:34;;;;;;;;;;;;;;;;;;5075008;28;19918;-18
2022/08/28 23:39:00;;;;;;;;;;;;;;;;;;5075110;28;20007;-19
2022/08/28 23:41:26;;;;;;;;;;;;;;;;;;5074953;28;20322;-19
2022/08/28 23:43:52;;;;;;;;;;;;;;;;;;5074825;28;19912;-19
2022/08/28 23:46:18;;;;;;;;;;;;;;;;;;5073897;28;19992;-18
2022/08/28 23:48:44;;;;;;;;;;;;;;;;;;5075480;28;19912;-18
2022/08/28 23:51:10;;;;;;;;;;;;;;;;;;5074781;28;20260;-19
2022/08/28 23:53:36;;;;;;;;;;;;;;;;;;5074696;28;19908;-19
2022/08/28 23:56:02;;;;;;;;;;;;;;;;;;5075194;28;20357;-18
2022/08/28 23:58:29;;;;;;;;;;;;;;;;;;5074678;28;20354;-19
